KBIJ

Early County Airport

Blakely, Georgia, USA
METAR KBIJ 171635Z AUTO 27003KT 10SM BKN024 BKN030 28/22 A3019 RMK AO2 LTG DSNT NE THRU S
Observed Flight Rules
Aug-17 @ 16:35 UTC (17 minutes ago) Marginal Visual Flight Rules
Wind Visibility Clouds
270° at 3 knots 10 miles
  • Broken at 2,400' AGL
  • Broken at 3,000' AGL
Temperatures Readings
Current 28°C / 82°F
Dewpoint 22°C / 72°F
Humidity 70%
Altimeter 30.19" Hg
Pressure 1022 hPa
Elevation 65
METAR KBIJ 171635Z AUTO 27003KT 10SM BKN024 BKN030 28/22 A3019 RMK AO2 LTG DSNT NE THRU S
Observed Flight Rules
Aug-17 @ 16:35 UTC
(17 minutes ago)
MVFR
Wind Visibility
270° at 3 knots 10 miles
Clouds
  • Broken at 2,400' AGL
  • Broken at 3,000' AGL
Temperature Dewpoint
28°C / 82°F 22°C / 72°F
Humidity Altimeter Pressure
70% 30.19" Hg 1022 hPa